createdAt,value
2022-09-02T00:01:25.681Z,1.97
2022-09-02T00:03:54.680Z,2.10
2022-09-02T00:06:22.996Z,1.90
2022-09-02T00:08:51.525Z,2.17
2022-09-02T00:11:22.061Z,2.00
2022-09-02T00:13:51.005Z,1.87
2022-09-02T00:16:19.984Z,2.03
2022-09-02T00:18:48.993Z,2.03
2022-09-02T00:21:17.811Z,1.97
2022-09-02T00:23:46.615Z,1.80
2022-09-02T00:26:15.243Z,1.70
2022-09-02T00:28:51.136Z,1.80
2022-09-02T00:31:24.849Z,1.63
2022-09-02T00:33:53.421Z,1.90
2022-09-02T00:36:21.679Z,1.93
2022-09-02T00:38:50.091Z,2.07
2022-09-02T00:41:20.679Z,1.90
2022-09-02T00:43:51.840Z,1.80
2022-09-02T00:46:22.578Z,1.97
2022-09-02T00:48:55.553Z,1.97
2022-09-02T00:51:24.607Z,1.53
2022-09-02T00:53:52.952Z,1.80
2022-09-02T00:56:24.326Z,1.43
2022-09-02T00:58:54.251Z,1.77
2022-09-02T01:01:22.926Z,2.10
2022-09-02T01:03:51.899Z,1.87
2022-09-02T01:06:21.949Z,1.70
2022-09-02T01:08:54.507Z,1.77
2022-09-02T01:11:22.955Z,1.60
2022-09-02T01:13:51.156Z,1.70
2022-09-02T01:16:24.699Z,1.80
2022-09-02T01:18:55.252Z,1.70
2022-09-02T01:21:24.176Z,1.90
2022-09-02T01:23:54.479Z,1.50
2022-09-02T01:26:22.800Z,1.90
2022-09-02T01:28:51.059Z,1.53
2022-09-02T01:31:19.286Z,1.90
2022-09-02T01:33:47.519Z,1.73
2022-09-02T01:36:15.715Z,1.70
2022-09-02T01:38:43.960Z,1.73
2022-09-02T01:41:13.537Z,1.77
2022-09-02T01:43:41.771Z,1.97
2022-09-02T01:46:10.175Z,1.70
2022-09-02T01:48:38.503Z,1.70
2022-09-02T01:51:06.724Z,2.17
2022-09-02T01:53:35.025Z,1.90
2022-09-02T01:56:03.271Z,1.70
2022-09-02T01:58:32.818Z,1.70
2022-09-02T02:01:01.121Z,1.70
2022-09-02T02:03:29.382Z,1.67
2022-09-02T02:05:57.972Z,2.07
2022-09-02T02:08:26.217Z,1.97
2022-09-02T02:10:54.518Z,1.87
2022-09-02T02:13:22.849Z,1.80
2022-09-02T02:15:52.534Z,1.93
2022-09-02T02:18:20.797Z,2.10
2022-09-02T02:20:49.093Z,2.00
2022-09-02T02:23:18.083Z,2.17
2022-09-02T02:25:46.810Z,1.80
2022-09-02T02:28:15.430Z,1.93
2022-09-02T02:30:43.688Z,1.80
2022-09-02T02:33:13.525Z,1.70
2022-09-02T02:35:41.792Z,1.90
2022-09-02T02:38:10.215Z,1.90
2022-09-02T02:40:42.666Z,1.90
2022-09-02T02:43:10.889Z,1.73
2022-09-02T02:45:39.292Z,1.83
2022-09-02T02:48:07.780Z,2.00
2022-09-02T02:50:37.373Z,2.03
2022-09-02T02:53:05.645Z,2.03
2022-09-02T02:55:33.984Z,1.90
2022-09-02T02:58:02.506Z,2.10
2022-09-02T03:00:32.132Z,2.17
2022-09-02T03:03:01.402Z,1.73
2022-09-02T03:05:30.727Z,1.80
2022-09-02T03:08:00.392Z,1.90
2022-09-02T03:10:28.656Z,2.30
2022-09-02T03:12:57.448Z,1.70
2022-09-02T03:15:25.695Z,2.23
2022-09-02T03:17:53.943Z,1.80
2022-09-02T03:20:22.339Z,1.80
2022-09-02T03:22:51.326Z,1.90
2022-09-02T03:25:22.331Z,2.00
2022-09-02T03:27:50.990Z,1.70
2022-09-02T03:30:21.097Z,1.83
2022-09-02T03:32:50.717Z,1.93
2022-09-02T03:35:19.425Z,1.77
2022-09-02T03:37:48.263Z,1.90
2022-09-02T03:40:17.853Z,1.90
2022-09-02T03:42:50.098Z,2.10
2022-09-02T03:45:18.517Z,1.70
2022-09-02T03:47:51.243Z,2.17
2022-09-02T03:50:20.155Z,1.80
2022-09-02T03:52:48.433Z,2.00
2022-09-02T03:55:17.132Z,1.90
2022-09-02T03:57:46.194Z,2.00
2022-09-02T04:00:17.196Z,2.03
2022-09-02T04:02:45.965Z,2.20
2022-09-02T04:05:19.144Z,2.10
2022-09-02T04:07:47.373Z,2.10
2022-09-02T04:10:16.118Z,1.93
2022-09-02T04:12:45.139Z,2.00
2022-09-02T04:15:14.152Z,2.00
2022-09-02T04:17:44.087Z,2.30
2022-09-02T04:20:13.843Z,2.20
2022-09-02T04:22:42.549Z,1.93
2022-09-02T04:25:11.065Z,2.20
2022-09-02T04:27:39.867Z,2.10
2022-09-02T04:30:09.052Z,2.30
2022-09-02T04:32:40.742Z,2.47
2022-09-02T04:35:10.797Z,2.23
2022-09-02T04:37:38.976Z,2.00
2022-09-02T04:40:07.712Z,2.00
2022-09-02T04:42:36.297Z,2.30
2022-09-02T04:45:04.557Z,2.57
2022-09-02T04:47:32.887Z,2.50
2022-09-02T04:50:01.229Z,2.13
2022-09-02T04:52:30.836Z,2.17
2022-09-02T04:54:59.249Z,2.90
2022-09-02T04:57:27.544Z,2.10
2022-09-02T04:59:55.797Z,2.60
2022-09-02T05:02:24.103Z,2.40
2022-09-02T05:04:52.975Z,2.63
2022-09-02T05:07:21.233Z,2.60
2022-09-02T05:09:51.345Z,2.50
2022-09-02T05:12:20.772Z,2.50
2022-09-02T05:14:49.561Z,2.53
2022-09-02T05:17:17.784Z,2.87
2022-09-02T05:19:46.016Z,2.30
2022-09-02T05:22:14.723Z,2.90
2022-09-02T05:24:43.300Z,2.50
2022-09-02T05:27:12.988Z,2.43
2022-09-02T05:29:45.188Z,2.67
2022-09-02T05:32:13.756Z,2.50
2022-09-02T05:34:41.993Z,2.13
2022-09-02T05:37:10.204Z,2.30
2022-09-02T05:39:38.431Z,2.90
2022-09-02T05:42:06.679Z,3.07
2022-09-02T05:44:38.025Z,2.97
2022-09-02T05:47:06.724Z,3.33
2022-09-02T05:49:34.959Z,3.13
2022-09-02T05:52:04.120Z,3.40
2022-09-02T05:54:33.439Z,2.80
2022-09-02T05:57:03.001Z,3.20
2022-09-02T05:59:31.951Z,2.60
2022-09-02T06:02:01.583Z,2.83
2022-09-02T06:04:29.974Z,2.80
2022-09-02T06:06:58.213Z,2.67
2022-09-02T06:09:27.159Z,2.40
2022-09-02T06:11:55.497Z,2.37
2022-09-02T06:14:25.344Z,2.57
2022-09-02T06:16:54.884Z,2.80
2022-09-02T06:19:26.185Z,2.60
2022-09-02T06:21:54.487Z,2.47
2022-09-02T06:24:23.129Z,2.70
2022-09-02T06:26:51.623Z,2.40
2022-09-02T06:29:25.118Z,2.60
2022-09-02T06:31:53.816Z,2.53
2022-09-02T06:34:23.891Z,2.80
2022-09-02T06:36:53.533Z,2.50
2022-09-02T06:39:23.304Z,2.63
2022-09-02T06:41:51.668Z,2.20
2022-09-02T06:44:21.561Z,2.53
2022-09-02T06:46:54.207Z,2.47
2022-09-02T06:49:23.577Z,2.40
2022-09-02T06:51:54.134Z,2.60
2022-09-02T06:54:23.033Z,2.63
2022-09-02T06:56:52.075Z,2.43
2022-09-02T06:59:20.712Z,2.30
2022-09-02T07:01:49.636Z,3.03
2022-09-02T07:04:36.113Z,2.70
2022-09-02T07:07:06.478Z,2.43
2022-09-02T07:09:34.764Z,2.03
2022-09-02T07:12:05.328Z,2.37
2022-09-02T07:14:37.481Z,2.03
2022-09-02T07:17:05.867Z,2.00
2022-09-02T07:19:34.468Z,2.00
2022-09-02T07:22:04.242Z,1.77
2022-09-02T07:24:33.962Z,2.28
2022-09-02T07:27:02.530Z,1.80
2022-09-02T07:29:30.787Z,2.08
2022-09-02T07:31:59.312Z,1.73
2022-09-02T07:34:27.575Z,1.25
2022-09-02T07:36:59.048Z,1.70
2022-09-02T07:39:30.933Z,1.60
2022-09-02T07:42:00.874Z,1.70
2022-09-02T07:44:29.236Z,1.50
2022-09-02T07:46:57.436Z,1.27
2022-09-02T07:49:25.986Z,1.20
2022-09-02T07:51:54.299Z,1.50
2022-09-02T07:54:23.770Z,1.20
2022-09-02T07:56:52.149Z,1.38
2022-09-02T07:59:22.722Z,1.33
2022-09-02T08:01:51.795Z,2.30
2022-09-02T08:04:21.190Z,1.40
2022-09-02T08:06:50.547Z,1.30
2022-09-02T08:09:18.817Z,1.50
2022-09-02T08:11:47.867Z,1.60
2022-09-02T08:14:18.050Z,1.40
2022-09-02T08:16:48.362Z,1.20
2022-09-02T08:19:16.706Z,1.35
2022-09-02T08:21:45.218Z,1.90
2022-09-02T08:24:13.614Z,1.63
2022-09-02T08:26:41.914Z,1.33
2022-09-02T08:29:11.021Z,1.75
2022-09-02T08:31:40.084Z,1.30
2022-09-02T08:34:09.809Z,1.63
2022-09-02T08:36:39.767Z,1.40
2022-09-02T08:39:12.768Z,1.60
2022-09-02T08:41:44.904Z,1.30
2022-09-02T08:44:13.626Z,1.40
2022-09-02T08:46:42.481Z,1.45
2022-09-02T08:49:15.905Z,1.70
2022-09-02T08:51:51.031Z,1.40
2022-09-02T08:54:24.755Z,1.48
2022-09-02T08:56:53.104Z,1.30
2022-09-02T08:59:23.227Z,1.40
2022-09-02T09:01:56.420Z,1.60
2022-09-02T09:04:38.451Z,1.50
2022-09-02T09:07:12.370Z,1.42
2022-09-02T09:09:44.614Z,1.75
2022-09-02T09:12:17.889Z,1.73
2022-09-02T09:14:48.668Z,1.60
2022-09-02T09:17:19.367Z,1.80
2022-09-02T09:19:51.954Z,1.48
2022-09-02T09:22:21.136Z,2.00
2022-09-02T09:24:50.758Z,1.50
2022-09-02T09:27:19.872Z,1.70
2022-09-02T09:29:49.929Z,1.40
2022-09-02T09:32:23.956Z,1.58
2022-09-02T09:34:59.989Z,1.63
2022-09-02T09:37:36.088Z,1.83
2022-09-02T09:40:22.932Z,1.50
2022-09-02T09:42:54.380Z,1.20
2022-09-02T09:45:27.590Z,1.55
2022-09-02T09:48:14.685Z,1.20
2022-09-02T09:50:44.670Z,1.50
2022-09-02T09:53:16.549Z,1.50
2022-09-02T09:55:55.261Z,1.30
2022-09-02T09:58:24.580Z,1.23
2022-09-02T10:00:56.340Z,1.52
2022-09-02T10:03:27.381Z,1.48
2022-09-02T10:06:19.323Z,1.50
2022-09-02T10:08:52.543Z,1.30
2022-09-02T10:11:22.986Z,1.83
2022-09-02T10:13:51.258Z,1.80
2022-09-02T10:16:29.960Z,1.53
2022-09-02T10:18:59.824Z,1.60
2022-09-02T10:21:45.188Z,1.57
2022-09-02T10:24:20.946Z,1.30
2022-09-02T10:26:51.099Z,1.30
2022-09-02T10:29:43.785Z,1.57
2022-09-02T10:32:21.529Z,1.50
2022-09-02T10:34:52.928Z,1.60
2022-09-02T10:37:23.613Z,1.73
2022-09-02T10:40:06.248Z,1.53
2022-09-02T10:42:37.664Z,1.50
2022-09-02T10:45:09.781Z,1.60
2022-09-02T10:47:38.717Z,1.50
2022-09-02T10:50:13.782Z,1.60
2022-09-02T10:52:53.421Z,1.40
2022-09-02T10:55:25.043Z,1.30
2022-09-02T10:57:56.142Z,1.90
2022-09-02T11:00:24.883Z,1.50
2022-09-02T11:02:55.595Z,1.60
2022-09-02T11:05:25.515Z,1.60
2022-09-02T11:07:57.800Z,1.83
2022-09-02T11:10:28.301Z,1.40
2022-09-02T11:12:59.069Z,1.63
2022-09-02T11:15:31.448Z,1.60
2022-09-02T11:18:06.357Z,1.40
2022-09-02T11:20:36.966Z,1.40
2022-09-02T11:23:12.151Z,1.33
2022-09-02T11:25:43.503Z,1.60
2022-09-02T11:28:21.894Z,1.47
2022-09-02T11:30:53.706Z,1.50
2022-09-02T11:33:26.537Z,1.70
2022-09-02T11:35:55.282Z,1.60
2022-09-02T11:38:33.932Z,1.53
2022-09-02T11:44:03.488Z,1.33
2022-09-02T11:46:41.365Z,1.47
2022-09-02T11:49:16.442Z,1.60
2022-09-02T11:51:53.292Z,1.30
2022-09-02T11:54:24.244Z,1.73
2022-09-02T11:56:56.896Z,1.50
2022-09-02T11:59:45.129Z,1.63
2022-09-02T12:02:14.083Z,1.70
2022-09-02T12:05:00.855Z,1.40
2022-09-02T12:07:32.891Z,1.80
2022-09-02T12:10:06.125Z,1.80
2022-09-02T12:12:52.786Z,1.53
2022-09-02T12:15:21.300Z,1.50
2022-09-02T12:18:10.403Z,1.30
2022-09-02T12:21:15.998Z,1.50
2022-09-02T12:24:05.493Z,1.60
2022-09-02T12:26:48.595Z,1.37
2022-09-02T12:29:32.461Z,1.83
2022-09-02T12:32:00.931Z,1.50
2022-09-02T12:34:47.857Z,1.40
2022-09-02T13:18:34.547Z,1.43
2022-09-02T13:21:22.389Z,1.50
2022-09-02T13:24:23.769Z,1.70
2022-09-02T13:27:12.501Z,1.50
2022-09-02T13:29:59.056Z,1.20
2022-09-02T13:32:28.861Z,1.43
2022-09-02T13:35:01.373Z,1.50
2022-09-02T13:37:30.768Z,1.70
2022-09-02T13:39:59.325Z,1.60
2022-09-02T13:42:32.931Z,1.67
2022-09-02T13:45:15.199Z,1.30
2022-09-02T13:47:44.304Z,1.40
2022-09-02T13:50:15.099Z,1.50
2022-09-02T13:53:45.162Z,1.40
2022-09-02T13:55:32.748Z,1.47
2022-09-02T13:58:03.447Z,1.30
2022-09-02T14:00:34.375Z,1.40
2022-09-02T14:03:04.530Z,1.40
2022-09-02T14:05:35.855Z,1.30
2022-09-02T14:08:05.702Z,1.53
2022-09-02T14:10:35.105Z,1.40
2022-09-02T14:13:04.604Z,1.27
2022-09-02T14:15:33.433Z,1.30
2022-09-02T14:18:17.867Z,1.37
2022-09-02T14:21:02.374Z,1.37
2022-09-02T14:23:33.352Z,1.33
2022-09-02T14:26:02.501Z,1.40
2022-09-02T14:28:31.373Z,1.20
2022-09-02T14:31:01.288Z,1.30
2022-09-02T14:33:40.677Z,1.20
2022-09-02T14:36:13.750Z,1.50
2022-09-02T14:38:51.789Z,1.43
2022-09-02T14:41:24.843Z,1.40
2022-09-02T14:43:54.446Z,1.57
2022-09-02T14:46:27.737Z,1.50
2022-09-02T14:48:58.043Z,1.40
2022-09-02T14:51:29.652Z,1.30
2022-09-02T14:53:57.884Z,1.53
2022-09-02T14:56:41.035Z,1.37
2022-09-02T14:59:09.314Z,1.33
2022-09-02T15:01:39.687Z,1.10
2022-09-02T15:04:07.985Z,1.43
2022-09-02T15:06:37.597Z,1.47
2022-09-02T15:09:06.079Z,1.37
2022-09-02T15:11:34.319Z,1.23
2022-09-02T15:14:02.582Z,1.40
2022-09-02T15:16:30.799Z,1.40
2022-09-02T15:18:59.090Z,1.43
2022-09-02T15:21:27.343Z,1.20
2022-09-02T15:23:57.468Z,1.50
2022-09-02T15:26:25.729Z,1.20
2022-09-02T15:28:53.995Z,1.70
2022-09-02T15:31:22.274Z,1.30
2022-09-02T15:33:51.596Z,1.33
2022-09-02T15:36:21.159Z,1.40
2022-09-02T15:38:49.420Z,1.20
2022-09-02T15:41:20.219Z,1.30
2022-09-02T15:43:49.073Z,1.57
2022-09-02T15:46:24.683Z,1.67
2022-09-02T15:48:53.560Z,1.30
2022-09-02T15:51:22.677Z,1.43
2022-09-02T15:53:55.565Z,1.53
2022-09-02T15:56:26.252Z,1.50
2022-09-02T15:58:58.889Z,1.40
2022-09-02T16:01:27.700Z,1.47
2022-09-02T16:03:56.864Z,1.60
2022-09-02T16:06:25.215Z,1.53
2022-09-02T16:08:53.716Z,1.37
2022-09-02T16:11:21.919Z,1.40
2022-09-02T16:13:51.867Z,1.30
2022-09-02T16:16:20.414Z,1.53
2022-09-02T16:18:51.611Z,1.43
2022-09-02T16:21:20.301Z,1.20
2022-09-02T16:23:50.259Z,1.50
2022-09-02T16:26:23.989Z,1.53
2022-09-02T16:28:55.485Z,1.40
2022-09-02T16:31:24.366Z,1.60
2022-09-02T16:33:56.396Z,1.60
2022-09-02T16:36:25.442Z,1.40
2022-09-02T16:39:00.958Z,1.30
2022-09-02T16:41:32.268Z,1.60
2022-09-02T16:44:03.128Z,1.40
2022-09-02T16:46:31.953Z,1.63
2022-09-02T16:49:00.176Z,1.53
2022-09-02T16:51:30.078Z,1.50
2022-09-02T16:53:58.912Z,1.30
2022-09-02T16:56:27.944Z,1.47
2022-09-02T16:58:56.480Z,1.40
2022-09-02T17:01:32.150Z,1.70
2022-09-02T17:04:01.316Z,1.70
2022-09-02T17:06:29.876Z,1.60
2022-09-02T17:08:58.251Z,1.80
2022-09-02T17:11:27.245Z,1.50
2022-09-02T17:13:56.898Z,1.50
2022-09-02T17:16:27.587Z,2.10
2022-09-02T17:18:56.197Z,1.37
2022-09-02T17:21:27.214Z,1.63
2022-09-02T17:23:55.981Z,1.40
2022-09-02T17:26:25.178Z,1.50
2022-09-02T17:28:54.762Z,1.67
2022-09-02T17:31:25.396Z,1.40
2022-09-02T17:33:56.375Z,1.73
2022-09-02T17:36:26.066Z,1.40
2022-09-02T17:38:56.932Z,1.53
2022-09-02T17:41:43.092Z,1.50
2022-09-02T17:44:11.705Z,1.50
2022-09-02T17:46:39.988Z,1.40
2022-09-02T17:49:17.820Z,1.50
2022-09-02T17:51:47.343Z,1.50
2022-09-02T17:54:16.028Z,1.83
2022-09-02T17:56:52.559Z,1.70
2022-09-02T17:59:21.797Z,1.57
2022-09-02T18:02:01.417Z,1.50
2022-09-02T18:04:35.447Z,1.20
2022-09-02T18:07:06.308Z,1.47
2022-09-02T18:09:35.235Z,1.60
2022-09-02T18:12:03.791Z,1.37
2022-09-02T18:14:35.707Z,1.50
2022-09-02T18:17:08.955Z,1.80
2022-09-02T18:19:46.908Z,1.67
2022-09-02T18:22:25.047Z,1.90
2022-09-02T18:25:00.253Z,1.70
2022-09-02T18:27:34.136Z,1.50
2022-09-02T18:30:04.720Z,1.47
2022-09-02T18:32:58.787Z,1.83
2022-09-02T18:35:35.592Z,1.40
2022-09-02T18:38:09.608Z,1.30
2022-09-02T18:40:44.232Z,2.47
2022-09-02T18:43:15.838Z,1.60
2022-09-02T18:45:48.915Z,1.90
2022-09-02T18:48:18.961Z,1.30
2022-09-02T18:50:52.202Z,1.63
2022-09-02T18:53:22.717Z,1.30
2022-09-02T18:55:51.810Z,1.63
2022-09-02T18:58:24.880Z,1.30
2022-09-02T19:00:57.119Z,1.50
2022-09-02T19:03:25.638Z,1.40
2022-09-02T19:05:56.748Z,1.37
2022-09-02T19:08:30.281Z,1.47
2022-09-02T19:11:01.975Z,1.50
2022-09-02T19:13:30.292Z,1.23
2022-09-02T19:16:04.304Z,1.67
2022-09-02T19:18:33.243Z,1.47
2022-09-02T19:21:03.003Z,1.63
2022-09-02T19:23:31.680Z,1.57
2022-09-02T19:26:00.106Z,1.43
2022-09-02T19:28:28.580Z,1.90
2022-09-02T19:31:00.313Z,1.37
2022-09-02T19:33:29.477Z,1.50
2022-09-02T19:35:58.781Z,1.67
2022-09-02T19:38:28.779Z,1.23
2022-09-02T19:40:57.391Z,1.40
2022-09-02T19:43:25.643Z,1.70
2022-09-02T19:45:54.225Z,1.47
2022-09-02T19:48:22.670Z,1.40
2022-09-02T19:50:51.103Z,1.40
2022-09-02T19:53:22.460Z,1.33
2022-09-02T19:55:52.583Z,1.60
2022-09-02T19:58:20.928Z,1.47
2022-09-02T20:00:49.560Z,1.63
2022-09-02T20:03:18.285Z,1.33
2022-09-02T20:05:46.567Z,1.53
2022-09-02T20:08:16.839Z,1.40
2022-09-02T20:10:45.835Z,1.60
2022-09-02T20:13:17.288Z,1.50
2022-09-02T20:15:45.501Z,1.70
2022-09-02T20:18:15.072Z,1.30
2022-09-02T20:20:44.340Z,1.90
2022-09-02T20:23:16.980Z,1.50
2022-09-02T20:25:50.922Z,1.57
2022-09-02T20:28:25.111Z,1.40
2022-09-02T20:30:59.543Z,1.50
2022-09-02T20:33:30.037Z,1.60
2022-09-02T20:36:04.740Z,1.50
2022-09-02T20:38:41.923Z,1.73
2022-09-02T20:41:11.538Z,1.70
2022-09-02T20:43:57.388Z,1.40
2022-09-02T20:46:33.107Z,1.43
2022-09-02T20:49:10.428Z,1.40
2022-09-02T20:51:41.275Z,1.40
2022-09-02T20:54:14.200Z,1.30
2022-09-02T20:56:46.808Z,1.30
2022-09-02T20:59:19.837Z,1.17
2022-09-02T21:01:50.809Z,1.57
2022-09-02T21:04:28.943Z,1.30
2022-09-02T21:07:01.151Z,1.57
2022-09-02T21:09:34.948Z,1.20
2022-09-02T21:12:04.663Z,1.20
2022-09-02T21:14:37.002Z,1.60
2022-09-02T21:17:09.245Z,1.20
2022-09-02T21:19:41.297Z,1.20
2022-09-02T21:22:10.965Z,1.57
2022-09-02T21:24:42.077Z,1.20
2022-09-02T21:27:13.092Z,1.23
2022-09-02T21:29:43.824Z,1.40
2022-09-02T21:32:17.248Z,1.63
2022-09-02T21:34:50.158Z,1.20
2022-09-02T21:37:20.539Z,1.40
2022-09-02T21:39:51.904Z,1.20
2022-09-02T21:42:24.638Z,1.40
2022-09-02T21:45:00.260Z,1.30
2022-09-02T21:47:33.428Z,1.40
2022-09-02T21:50:07.364Z,1.40
2022-09-02T21:52:43.584Z,1.40
2022-09-02T21:55:17.267Z,1.40
2022-09-02T21:57:51.551Z,1.30
2022-09-02T22:00:22.030Z,1.47
2022-09-02T22:02:57.824Z,1.20
2022-09-02T22:05:33.957Z,1.27
2022-09-02T22:08:09.587Z,1.20
2022-09-02T22:10:40.410Z,1.20
2022-09-02T22:13:08.928Z,1.33
2022-09-02T22:15:42.607Z,1.17
2022-09-02T22:18:16.896Z,1.33
2022-09-02T22:20:45.995Z,1.50
2022-09-02T22:23:22.484Z,1.13
2022-09-02T22:25:53.974Z,1.30
2022-09-02T22:28:25.828Z,1.33
2022-09-02T22:30:57.496Z,1.27
2022-09-02T22:33:33.885Z,1.10
2022-09-02T22:36:05.830Z,1.20
2022-09-02T22:38:36.974Z,1.23
2022-09-02T22:41:14.445Z,1.30
2022-09-02T22:43:44.616Z,1.10
2022-09-02T22:46:35.229Z,1.40
2022-09-02T22:49:25.160Z,1.30
2022-09-02T22:52:16.603Z,1.37
2022-09-02T22:54:44.889Z,1.20
2022-09-02T22:57:15.859Z,1.30
2022-09-02T22:59:48.996Z,1.00
2022-09-02T23:02:20.357Z,1.33
2022-09-02T23:05:02.665Z,1.20
2022-09-02T23:07:31.292Z,1.20
2022-09-02T23:10:01.081Z,1.10
2022-09-02T23:12:31.872Z,1.20
2022-09-02T23:15:10.252Z,1.17
2022-09-02T23:17:43.116Z,1.07
2022-09-02T23:20:20.356Z,1.13
2022-09-02T23:22:54.823Z,1.13
2022-09-02T23:25:30.198Z,1.30
2022-09-02T23:28:04.885Z,1.20
2022-09-02T23:30:33.161Z,1.40
2022-09-02T23:33:11.692Z,1.10
2022-09-02T23:35:48.201Z,1.20
2022-09-02T23:38:24.025Z,1.13
2022-09-02T23:40:57.437Z,1.20
2022-09-02T23:43:26.152Z,1.30
2022-09-02T23:45:55.957Z,0.97
2022-09-02T23:48:29.034Z,1.17
2022-09-02T23:51:05.435Z,1.20
2022-09-02T23:53:37.384Z,1.10
2022-09-02T23:56:12.701Z,1.20
2022-09-02T23:58:51.747Z,1.20
